sensor_id;sensor_type;location;lat;lon;timestamp;pressure;altitude;pressure_sealevel;temperature;humidity
21109;BME280;10712;52.944;9.098;2023-03-16T00:00:15;101921.13;;;8.72;46.03
21109;BME280;10712;52.944;9.098;2023-03-16T00:02:42;101918.44;;;8.74;46.03
21109;BME280;10712;52.944;9.098;2023-03-16T00:05:11;101918.53;;;8.71;46.04
21109;BME280;10712;52.944;9.098;2023-03-16T00:07:38;101925.56;;;8.72;45.81
21109;BME280;10712;52.944;9.098;2023-03-16T00:10:05;101928.31;;;8.70;45.85
21109;BME280;10712;52.944;9.098;2023-03-16T00:12:31;101932.75;;;8.69;45.93
21109;BME280;10712;52.944;9.098;2023-03-16T00:15:00;101925.69;;;8.68;45.87
21109;BME280;10712;52.944;9.098;2023-03-16T00:17:26;101929.25;;;8.67;46.07
21109;BME280;10712;52.944;9.098;2023-03-16T00:19:54;101931.19;;;8.62;45.68
21109;BME280;10712;52.944;9.098;2023-03-16T00:22:28;101928.56;;;8.61;45.94
21109;BME280;10712;52.944;9.098;2023-03-16T00:24:54;101927.81;;;8.57;45.88
21109;BME280;10712;52.944;9.098;2023-03-16T00:27:23;101931.38;;;8.56;45.95
21109;BME280;10712;52.944;9.098;2023-03-16T00:29:51;101924.34;;;8.55;45.86
21109;BME280;10712;52.944;9.098;2023-03-16T00:32:28;101927.91;;;8.54;45.84
21109;BME280;10712;52.944;9.098;2023-03-16T00:34:55;101929.72;;;8.52;45.96
21109;BME280;10712;52.944;9.098;2023-03-16T00:37:24;101925.31;;;8.51;45.94
21109;BME280;10712;52.944;9.098;2023-03-16T00:39:52;101929.72;;;8.52;45.90
21109;BME280;10712;52.944;9.098;2023-03-16T00:42:23;101927.91;;;8.54;45.93
21109;BME280;10712;52.944;9.098;2023-03-16T00:44:53;101923.47;;;8.55;45.94
21109;BME280;10712;52.944;9.098;2023-03-16T00:47:24;101925.25;;;8.54;45.89
21109;BME280;10712;52.944;9.098;2023-03-16T00:49:50;101931.44;;;8.55;45.93
21109;BME280;10712;52.944;9.098;2023-03-16T00:52:17;101933.22;;;8.54;46.05
21109;BME280;10712;52.944;9.098;2023-03-16T00:54:45;101924.34;;;8.55;46.01
21109;BME280;10712;52.944;9.098;2023-03-16T00:57:15;101919.88;;;8.56;45.98
21109;BME280;10712;52.944;9.098;2023-03-16T00:59:46;101920.97;;;8.50;46.05
21109;BME280;10712;52.944;9.098;2023-03-16T01:02:16;101915.53;;;8.53;45.99
21109;BME280;10712;52.944;9.098;2023-03-16T01:04:44;101911.97;;;8.54;45.75
21109;BME280;10712;52.944;9.098;2023-03-16T01:07:13;101911.97;;;8.54;45.81
21109;BME280;10712;52.944;9.098;2023-03-16T01:09:40;101908.59;;;8.49;45.85
21109;BME280;10712;52.944;9.098;2023-03-16T01:12:10;101903.34;;;8.46;45.79
21109;BME280;10712;52.944;9.098;2023-03-16T01:14:38;101899.84;;;8.46;45.76
21109;BME280;10712;52.944;9.098;2023-03-16T01:17:06;101901.53;;;8.48;45.80
21109;BME280;10712;52.944;9.098;2023-03-16T01:19:35;101900.63;;;8.49;45.73
21109;BME280;10712;52.944;9.098;2023-03-16T01:22:04;101898.88;;;8.48;45.79
21109;BME280;10712;52.944;9.098;2023-03-16T01:24:32;101903.34;;;8.46;45.80
21109;BME280;10712;52.944;9.098;2023-03-16T01:26:59;101896.41;;;8.42;45.66
21109;BME280;10712;52.944;9.098;2023-03-16T01:29:25;101892.03;;;8.41;45.59
21109;BME280;10712;52.944;9.098;2023-03-16T01:31:53;101887.63;;;8.40;45.46
21109;BME280;10712;52.944;9.098;2023-03-16T01:34:21;101885.88;;;8.39;45.51
21109;BME280;10712;52.944;9.098;2023-03-16T01:36:48;101893.88;;;8.38;45.35
21109;BME280;10712;52.944;9.098;2023-03-16T01:39:22;101893.00;;;8.37;45.43
21109;BME280;10712;52.944;9.098;2023-03-16T01:41:48;101890.44;;;8.36;45.45
21109;BME280;10712;52.944;9.098;2023-03-16T01:44:19;101893.13;;;8.34;45.33
21109;BME280;10712;52.944;9.098;2023-03-16T01:46:47;101894.94;;;8.32;45.39
21109;BME280;10712;52.944;9.098;2023-03-16T01:49:35;101898.59;;;8.28;45.27
21109;BME280;10712;52.944;9.098;2023-03-16T01:52:06;101896.84;;;8.27;45.37
21109;BME280;10712;52.944;9.098;2023-03-16T01:54:42;101896.94;;;8.24;45.31
21109;BME280;10712;52.944;9.098;2023-03-16T01:57:23;101895.19;;;8.23;45.48
21109;BME280;10712;52.944;9.098;2023-03-16T02:00:12;101891.63;;;8.24;45.46
21109;BME280;10712;52.944;9.098;2023-03-16T02:03:06;101884.63;;;8.21;45.40
21109;BME280;10712;52.944;9.098;2023-03-16T02:05:44;101885.75;;;8.14;45.29
21109;BME280;10712;52.944;9.098;2023-03-16T02:08:16;101888.38;;;8.14;45.48
21109;BME280;10712;52.944;9.098;2023-03-16T02:10:43;101879.56;;;8.14;45.36
21109;BME280;10712;52.944;9.098;2023-03-16T02:13:11;101881.31;;;8.15;45.51
21109;BME280;10712;52.944;9.098;2023-03-16T02:15:37;101872.44;;;8.16;45.43
21109;BME280;10712;52.944;9.098;2023-03-16T02:18:04;101868.94;;;8.14;45.57
21109;BME280;10712;52.944;9.098;2023-03-16T02:23:19;101859.38;;;8.08;45.45
21109;BME280;10712;52.944;9.098;2023-03-16T02:25:59;101856.66;;;8.10;45.56
21109;BME280;10712;52.944;9.098;2023-03-16T02:31:02;101846.03;;;8.10;45.62
21109;BME280;10712;52.944;9.098;2023-03-16T02:33:31;101847.91;;;8.08;45.63
21109;BME280;10712;52.944;9.098;2023-03-16T02:35:58;101846.03;;;8.10;45.76
21109;BME280;10712;52.944;9.098;2023-03-16T02:38:24;101842.47;;;8.11;45.82
21109;BME280;10712;52.944;9.098;2023-03-16T02:41:25;101838.06;;;8.10;45.90
21109;BME280;10712;52.944;9.098;2023-03-16T02:44:11;101842.47;;;8.11;46.05
21109;BME280;10712;52.944;9.098;2023-03-16T02:46:42;101832.72;;;8.11;46.05
21109;BME280;10712;52.944;9.098;2023-03-16T02:51:44;101840.66;;;8.13;46.01
21109;BME280;10712;52.944;9.098;2023-03-16T02:54:10;101837.09;;;8.14;46.27
21109;BME280;10712;52.944;9.098;2023-03-16T02:56:38;101841.53;;;8.13;46.13
21109;BME280;10712;52.944;9.098;2023-03-16T02:59:04;101828.22;;;8.15;46.03
21109;BME280;10712;52.944;9.098;2023-03-16T03:01:31;101826.47;;;8.14;46.18
21109;BME280;10712;52.944;9.098;2023-03-16T03:04:00;101821.19;;;8.12;46.11
21109;BME280;10712;52.944;9.098;2023-03-16T03:06:27;101830.13;;;8.10;46.16
21109;BME280;10712;52.944;9.098;2023-03-16T03:08:53;101833.72;;;8.09;46.09
21109;BME280;10712;52.944;9.098;2023-03-16T03:11:19;101830.22;;;8.07;46.16
21109;BME280;10712;52.944;9.098;2023-03-16T03:13:46;101830.31;;;8.04;46.00
21109;BME280;10712;52.944;9.098;2023-03-16T03:16:17;101838.28;;;8.04;46.06
21109;BME280;10712;52.944;9.098;2023-03-16T03:18:43;101833.94;;;8.01;46.20
21109;BME280;10712;52.944;9.098;2023-03-16T03:21:08;101832.25;;;7.99;46.14
21109;BME280;10712;52.944;9.098;2023-03-16T03:23:34;101838.59;;;7.93;46.08
21109;BME280;10712;52.944;9.098;2023-03-16T03:26:01;101836.88;;;7.92;46.17
21109;BME280;10712;52.944;9.098;2023-03-16T03:28:30;101840.44;;;7.91;46.21
21109;BME280;10712;52.944;9.098;2023-03-16T03:30:56;101836.06;;;7.88;46.13
21109;BME280;10712;52.944;9.098;2023-03-16T03:33:22;101837.81;;;7.89;46.09
21109;BME280;10712;52.944;9.098;2023-03-16T03:35:55;101845.03;;;7.84;46.16
21109;BME280;10712;52.944;9.098;2023-03-16T03:38:23;101832.69;;;7.83;46.23
21109;BME280;10712;52.944;9.098;2023-03-16T03:40:53;101838.91;;;7.82;46.35
21109;BME280;10712;52.944;9.098;2023-03-16T03:43:26;101836.22;;;7.84;46.23
21109;BME280;10712;52.944;9.098;2023-03-16T03:46:00;101834.50;;;7.81;46.13
21109;BME280;10712;52.944;9.098;2023-03-16T03:48:27;101825.63;;;7.82;46.23
21109;BME280;10712;52.944;9.098;2023-03-16T03:50:54;101831.84;;;7.81;46.29
21109;BME280;10712;52.944;9.098;2023-03-16T03:53:57;101829.22;;;7.81;46.33
21109;BME280;10712;52.944;9.098;2023-03-16T03:56:44;101825.63;;;7.82;46.28
21109;BME280;10712;52.944;9.098;2023-03-16T03:59:14;101820.25;;;7.85;46.37
21109;BME280;10712;52.944;9.098;2023-03-16T04:02:03;101833.50;;;7.87;46.50
21109;BME280;10712;52.944;9.098;2023-03-16T04:04:40;101832.50;;;7.89;46.43
21109;BME280;10712;52.944;9.098;2023-03-16T04:07:09;101825.38;;;7.91;46.43
21109;BME280;10712;52.944;9.098;2023-03-16T04:09:35;101827.13;;;7.93;46.51
21109;BME280;10712;52.944;9.098;2023-03-16T04:12:04;101825.31;;;7.95;46.62
21109;BME280;10712;52.944;9.098;2023-03-16T04:14:30;101824.31;;;7.97;46.52
21109;BME280;10712;52.944;9.098;2023-03-16T04:16:58;101828.69;;;8.00;46.54
21109;BME280;10712;52.944;9.098;2023-03-16T04:19:25;101826.75;;;8.05;46.57
21109;BME280;10712;52.944;9.098;2023-03-16T04:21:53;101826.53;;;8.11;46.49
21109;BME280;10712;52.944;9.098;2023-03-16T04:24:19;101829.97;;;8.16;46.65
21109;BME280;10712;52.944;9.098;2023-03-16T04:26:47;101831.59;;;8.20;46.63
21109;BME280;10712;52.944;9.098;2023-03-16T04:29:14;101826.13;;;8.24;46.57
21109;BME280;10712;52.944;9.098;2023-03-16T04:31:44;101829.47;;;8.31;46.50
21109;BME280;10712;52.944;9.098;2023-03-16T04:34:10;101817.88;;;8.35;46.41
21109;BME280;10712;52.944;9.098;2023-03-16T04:36:37;101824.72;;;8.42;46.44
21109;BME280;10712;52.944;9.098;2023-03-16T04:39:04;101822.88;;;8.44;46.27
21109;BME280;10712;52.944;9.098;2023-03-16T04:41:31;101822.78;;;8.47;46.26
21109;BME280;10712;52.944;9.098;2023-03-16T04:44:12;101817.38;;;8.50;46.22
21109;BME280;10712;52.944;9.098;2023-03-16T04:46:39;101814.66;;;8.52;46.14
21109;BME280;10712;52.944;9.098;2023-03-16T04:49:08;101810.09;;;8.57;45.95
21109;BME280;10712;52.944;9.098;2023-03-16T04:51:36;101807.34;;;8.58;46.02
21109;BME280;10712;52.944;9.098;2023-03-16T04:54:08;101802.81;;;8.62;45.81
21109;BME280;10712;52.944;9.098;2023-03-16T04:56:37;101801.00;;;8.64;45.97
21109;BME280;10712;52.944;9.098;2023-03-16T04:59:09;101815.19;;;8.63;46.00
21109;BME280;10712;52.944;9.098;2023-03-16T05:01:44;101806.13;;;8.68;45.85
21109;BME280;10712;52.944;9.098;2023-03-16T05:04:11;101801.66;;;8.71;45.70
21109;BME280;10712;52.944;9.098;2023-03-16T05:06:38;101798.03;;;8.72;45.65
21109;BME280;10712;52.944;9.098;2023-03-16T05:09:04;101785.59;;;8.74;45.39
21109;BME280;10712;52.944;9.098;2023-03-16T05:11:36;101790.81;;;8.77;45.84
21109;BME280;10712;52.944;9.098;2023-03-16T05:14:05;101785.41;;;8.78;45.75
21109;BME280;10712;52.944;9.098;2023-03-16T05:16:36;101790.69;;;8.80;45.68
21109;BME280;10712;52.944;9.098;2023-03-16T05:19:02;101783.63;;;8.79;45.82
21109;BME280;10712;52.944;9.098;2023-03-16T05:21:32;101772.09;;;8.80;45.90
21109;BME280;10712;52.944;9.098;2023-03-16T05:24:07;101771.97;;;8.84;45.78
21109;BME280;10712;52.944;9.098;2023-03-16T05:26:33;101776.41;;;8.84;45.92
21109;BME280;10712;52.944;9.098;2023-03-16T05:29:00;101778.22;;;8.82;45.78
21109;BME280;10712;52.944;9.098;2023-03-16T05:31:29;101776.53;;;8.79;46.20
21109;BME280;10712;52.944;9.098;2023-03-16T05:33:59;101767.81;;;8.76;46.12
21109;BME280;10712;52.944;9.098;2023-03-16T05:36:24;101776.63;;;8.78;46.13
21109;BME280;10712;52.944;9.098;2023-03-16T05:38:54;101789.78;;;8.81;46.15
21109;BME280;10712;52.944;9.098;2023-03-16T05:41:28;101783.53;;;8.82;46.18
21109;BME280;10712;52.944;9.098;2023-03-16T05:44:17;101782.72;;;8.80;46.39
21109;BME280;10712;52.944;9.098;2023-03-16T05:47:09;101778.22;;;8.82;46.37
21109;BME280;10712;52.944;9.098;2023-03-16T05:49:40;101779.97;;;8.83;46.31
21109;BME280;10712;52.944;9.098;2023-03-16T05:52:12;101792.22;;;8.87;46.29
21109;BME280;10712;52.944;9.098;2023-03-16T05:54:38;101788.63;;;8.88;46.45
21109;BME280;10712;52.944;9.098;2023-03-16T05:57:04;101784.97;;;8.92;46.31
21109;BME280;10712;52.944;9.098;2023-03-16T05:59:31;101775.19;;;8.92;46.35
21109;BME280;10712;52.944;9.098;2023-03-16T06:01:57;101775.03;;;8.97;46.22
21109;BME280;10712;52.944;9.098;2023-03-16T06:04:23;101772.38;;;8.97;46.21
21109;BME280;10712;52.944;9.098;2023-03-16T06:06:49;101774.91;;;9.00;46.24
21109;BME280;10712;52.944;9.098;2023-03-16T06:09:21;101775.66;;;9.05;46.09
21109;BME280;10712;52.944;9.098;2023-03-16T06:11:47;101779.09;;;9.07;46.10
21109;BME280;10712;52.944;9.098;2023-03-16T06:14:15;101775.47;;;9.09;46.15
21109;BME280;10712;52.944;9.098;2023-03-16T06:16:41;101777.97;;;9.14;45.99
21109;BME280;10712;52.944;9.098;2023-03-16T06:19:08;101780.53;;;9.17;45.98
21109;BME280;10712;52.944;9.098;2023-03-16T06:21:34;101780.53;;;9.17;45.89
21109;BME280;10712;52.944;9.098;2023-03-16T06:24:07;101779.44;;;9.23;45.72
21109;BME280;10712;52.944;9.098;2023-03-16T06:26:35;101782.84;;;9.26;45.87
21109;BME280;10712;52.944;9.098;2023-03-16T06:29:04;101785.44;;;9.28;46.07
21109;BME280;10712;52.944;9.098;2023-03-16T06:31:32;101786.22;;;9.31;45.81
21109;BME280;10712;52.944;9.098;2023-03-16T06:33:59;101802.03;;;9.34;45.69
21109;BME280;10712;52.944;9.098;2023-03-16T06:36:27;101801.13;;;9.35;45.67
21109;BME280;10712;52.944;9.098;2023-03-16T06:38:57;101809.00;;;9.38;45.75
21109;BME280;10712;52.944;9.098;2023-03-16T06:41:43;101811.53;;;9.41;45.80
21109;BME280;10712;52.944;9.098;2023-03-16T06:44:12;101815.81;;;9.45;45.67
21109;BME280;10712;52.944;9.098;2023-03-16T06:46:46;101812.81;;;9.55;45.60
21109;BME280;10712;52.944;9.098;2023-03-16T06:49:12;101811.09;;;9.54;45.54
21109;BME280;10712;52.944;9.098;2023-03-16T06:51:38;101812.81;;;9.55;45.55
21109;BME280;10712;52.944;9.098;2023-03-16T06:54:04;101816.19;;;9.60;45.58
21109;BME280;10712;52.944;9.098;2023-03-16T06:56:31;101812.47;;;9.64;45.49
21109;BME280;10712;52.944;9.098;2023-03-16T06:58:57;101814.22;;;9.65;45.46
21109;BME280;10712;52.944;9.098;2023-03-16T07:01:23;101817.69;;;9.67;45.42
21109;BME280;10712;52.944;9.098;2023-03-16T07:03:49;101808.66;;;9.71;45.50
21109;BME280;10712;52.944;9.098;2023-03-16T07:06:20;101815.63;;;9.75;45.72
21109;BME280;10712;52.944;9.098;2023-03-16T07:08:46;101814.53;;;9.80;45.62
21109;BME280;10712;52.944;9.098;2023-03-16T07:11:11;101818.84;;;9.83;45.35
21109;BME280;10712;52.944;9.098;2023-03-16T07:13:40;101822.09;;;9.91;45.29
21109;BME280;10712;52.944;9.098;2023-03-16T07:16:07;101830.75;;;9.96;45.19
21109;BME280;10712;52.944;9.098;2023-03-16T07:18:33;101828.72;;;10.03;45.18
21109;BME280;10712;52.944;9.098;2023-03-16T07:21:00;101826.72;;;10.09;45.16
21109;BME280;10712;52.944;9.098;2023-03-16T07:23:26;101823.00;;;10.13;44.96
21109;BME280;10712;52.944;9.098;2023-03-16T07:25:57;101815.72;;;10.18;44.94
21109;BME280;10712;52.944;9.098;2023-03-16T07:28:22;101824.53;;;10.20;44.89
21109;BME280;10712;52.944;9.098;2023-03-16T07:30:50;101829.59;;;10.26;44.83
21109;BME280;10712;52.944;9.098;2023-03-16T07:33:16;101828.53;;;10.31;44.71
21109;BME280;10712;52.944;9.098;2023-03-16T07:35:43;101839.75;;;10.39;44.75
21109;BME280;10712;52.944;9.098;2023-03-16T07:38:09;101834.31;;;10.42;44.81
21109;BME280;10712;52.944;9.098;2023-03-16T07:40:40;101834.75;;;10.53;44.43
21109;BME280;10712;52.944;9.098;2023-03-16T07:43:13;101831.09;;;10.55;44.36
21109;BME280;10712;52.944;9.098;2023-03-16T07:45:49;101833.41;;;10.64;44.42
21109;BME280;10712;52.944;9.098;2023-03-16T07:48:18;101829.88;;;10.64;44.48
21109;BME280;10712;52.944;9.098;2023-03-16T07:50:49;101832.06;;;10.75;44.27
21109;BME280;10712;52.944;9.098;2023-03-16T07:53:16;101838.63;;;10.88;43.95
21109;BME280;10712;52.944;9.098;2023-03-16T07:55:46;101828.81;;;10.88;44.17
21109;BME280;10712;52.944;9.098;2023-03-16T07:58:12;101828.72;;;10.91;43.99
21109;BME280;10712;52.944;9.098;2023-03-16T08:00:40;101829.44;;;10.95;44.04
21109;BME280;10712;52.944;9.098;2023-03-16T08:03:07;101824.59;;;11.04;44.01
21109;BME280;10712;52.944;9.098;2023-03-16T08:05:34;101821.72;;;11.09;43.86
21109;BME280;10712;52.944;9.098;2023-03-16T08:08:05;101815.22;;;11.15;43.38
21109;BME280;10712;52.944;9.098;2023-03-16T08:10:35;101824.03;;;11.17;43.75
21109;BME280;10712;52.944;9.098;2023-03-16T08:13:13;101816.56;;;11.25;43.86
21109;BME280;10712;52.944;9.098;2023-03-16T08:15:49;101803.22;;;11.45;43.30
21109;BME280;10712;52.944;9.098;2023-03-16T08:18:28;101810.13;;;11.49;43.25
21109;BME280;10712;52.944;9.098;2023-03-16T08:20:56;101809.03;;;11.73;42.89
21109;BME280;10712;52.944;9.098;2023-03-16T08:23:23;101809.16;;;11.70;42.95
21109;BME280;10712;52.944;9.098;2023-03-16T08:25:53;101810.91;;;11.71;43.04
21109;BME280;10712;52.944;9.098;2023-03-16T08:28:20;101812.16;;;11.83;43.08
21109;BME280;10712;52.944;9.098;2023-03-16T08:30:49;101808.78;;;11.98;43.40
21109;BME280;10712;52.944;9.098;2023-03-16T08:33:29;101807.03;;;11.97;43.11
21109;BME280;10712;52.944;9.098;2023-03-16T08:35:55;101812.25;;;12.19;42.66
21109;BME280;10712;52.944;9.098;2023-03-16T08:38:21;101812.09;;;12.22;42.71
21109;BME280;10712;52.944;9.098;2023-03-16T08:40:50;101805.66;;;12.26;42.67
21109;BME280;10712;52.944;9.098;2023-03-16T08:43:18;101812.81;;;12.44;41.99
21109;BME280;10712;52.944;9.098;2023-03-16T08:45:45;101812.81;;;12.44;42.06
21109;BME280;10712;52.944;9.098;2023-03-16T08:48:13;101812.19;;;12.56;42.17
21109;BME280;10712;52.944;9.098;2023-03-16T08:50:43;101808.09;;;12.67;41.68
21109;BME280;10712;52.944;9.098;2023-03-16T08:53:11;101809.75;;;12.69;41.84
21109;BME280;10712;52.944;9.098;2023-03-16T08:55:38;101807.19;;;12.85;41.52
21109;BME280;10712;52.944;9.098;2023-03-16T08:58:07;101806.69;;;12.94;41.20
21109;BME280;10712;52.944;9.098;2023-03-16T09:00:33;101803.09;;;13.12;41.00
21109;BME280;10712;52.944;9.098;2023-03-16T09:02:59;101800.28;;;13.15;41.10
21109;BME280;10712;52.944;9.098;2023-03-16T09:05:27;101802.94;;;13.32;40.59
21109;BME280;10712;52.944;9.098;2023-03-16T09:07:53;101793.31;;;13.46;40.34
21109;BME280;10712;52.944;9.098;2023-03-16T09:10:21;101788.09;;;13.60;39.17
21109;BME280;10712;52.944;9.098;2023-03-16T09:12:50;101784.53;;;13.59;39.11
21109;BME280;10712;52.944;9.098;2023-03-16T09:15:18;101791.97;;;13.70;39.68
21109;BME280;10712;52.944;9.098;2023-03-16T09:17:46;101793.38;;;13.77;39.86
21109;BME280;10712;52.944;9.098;2023-03-16T09:20:15;101785.44;;;13.91;39.50
21109;BME280;10712;52.944;9.098;2023-03-16T09:22:41;101780.44;;;14.01;39.42
21109;BME280;10712;52.944;9.098;2023-03-16T09:25:08;101780.09;;;14.07;39.42
21109;BME280;10712;52.944;9.098;2023-03-16T09:27:36;101788.38;;;14.18;39.01
21109;BME280;10712;52.944;9.098;2023-03-16T09:30:07;101787.34;;;14.20;38.98
21109;BME280;10712;52.944;9.098;2023-03-16T09:32:33;101783.38;;;14.28;38.67
21109;BME280;10712;52.944;9.098;2023-03-16T09:35:02;101786.84;;;14.30;38.53
21109;BME280;10712;52.944;9.098;2023-03-16T09:37:28;101791.38;;;14.45;38.59
21109;BME280;10712;52.944;9.098;2023-03-16T09:39:53;101782.69;;;14.55;38.03
21109;BME280;10712;52.944;9.098;2023-03-16T09:47:55;101782.09;;;14.80;36.79
21109;BME280;10712;52.944;9.098;2023-03-16T09:50:36;101767.34;;;14.87;36.34
21109;BME280;10712;52.944;9.098;2023-03-16T09:56:37;101767.63;;;15.13;35.70
21109;BME280;10712;52.944;9.098;2023-03-16T09:59:13;101768.19;;;15.18;35.60
21109;BME280;10712;52.944;9.098;2023-03-16T10:05:04;101764.19;;;15.39;35.93
21109;BME280;10712;52.944;9.098;2023-03-16T10:08:03;101758.13;;;15.50;35.61
21109;BME280;10712;52.944;9.098;2023-03-16T10:10:44;101757.50;;;15.60;35.01
21109;BME280;10712;52.944;9.098;2023-03-16T10:16:37;101765.09;;;15.68;34.90
21109;BME280;10712;52.944;9.098;2023-03-16T10:22:29;101749.44;;;15.74;34.35
21109;BME280;10712;52.944;9.098;2023-03-16T10:25:11;101738.09;;;15.84;34.34
21109;BME280;10712;52.944;9.098;2023-03-16T10:27:43;101746.75;;;15.89;34.68
21109;BME280;10712;52.944;9.098;2023-03-16T10:30:26;101743.28;;;15.87;34.81
21109;BME280;10712;52.944;9.098;2023-03-16T10:32:54;101740.09;;;15.94;34.60
21109;BME280;10712;52.944;9.098;2023-03-16T10:38:26;101737.50;;;15.93;33.96
21109;BME280;10712;52.944;9.098;2023-03-16T10:40:52;101737.31;;;15.96;34.44
21109;BME280;10712;52.944;9.098;2023-03-16T10:43:19;101727.47;;;16.09;33.54
21109;BME280;10712;52.944;9.098;2023-03-16T10:45:45;101730.34;;;16.06;33.47
21109;BME280;10712;52.944;9.098;2023-03-16T10:48:15;101727.94;;;16.15;33.99
21109;BME280;10712;52.944;9.098;2023-03-16T10:50:42;101717.84;;;16.19;34.34
21109;BME280;10712;52.944;9.098;2023-03-16T10:53:26;101723.47;;;16.29;34.62
21109;BME280;10712;52.944;9.098;2023-03-16T10:56:11;101722.88;;;16.38;33.04
21109;BME280;10712;52.944;9.098;2023-03-16T10:58:41;101719.09;;;16.40;32.57
21109;BME280;10712;52.944;9.098;2023-03-16T11:01:17;101723.78;;;16.51;33.14
21109;BME280;10712;52.944;9.098;2023-03-16T11:03:51;101723.88;;;16.49;32.95
21109;BME280;10712;52.944;9.098;2023-03-16T11:06:27;101727.19;;;16.53;33.31
21109;BME280;10712;52.944;9.098;2023-03-16T11:09:23;101718.28;;;16.52;33.22
21109;BME280;10712;52.944;9.098;2023-03-16T11:11:51;101727.09;;;16.54;32.99
21109;BME280;10712;52.944;9.098;2023-03-16T11:14:25;101724.88;;;16.61;32.74
21109;BME280;10712;52.944;9.098;2023-03-16T11:17:06;101720.13;;;16.52;32.99
21109;BME280;10712;52.944;9.098;2023-03-16T11:19:47;101706.75;;;16.50;33.63
21109;BME280;10712;52.944;9.098;2023-03-16T11:22:19;101699.47;;;16.52;33.39
21109;BME280;10712;52.944;9.098;2023-03-16T11:33:39;101692.50;;;16.75;33.20
21109;BME280;10712;52.944;9.098;2023-03-16T11:36:38;101686.59;;;16.83;33.35
21109;BME280;10712;52.944;9.098;2023-03-16T11:39:29;101682.53;;;16.90;32.64
21109;BME280;10712;52.944;9.098;2023-03-16T11:42:22;101678.44;;;16.97;32.47
21109;BME280;10712;52.944;9.098;2023-03-16T11:45:01;101673.06;;;16.97;32.83
21109;BME280;10712;52.944;9.098;2023-03-16T11:51:04;101666.38;;;17.03;32.07
21109;BME280;10712;52.944;9.098;2023-03-16T11:53:48;101658.38;;;17.01;32.41
21109;BME280;10712;52.944;9.098;2023-03-16T11:59:07;101652.16;;;17.13;32.79
21109;BME280;10712;52.944;9.098;2023-03-16T12:15:35;101634.00;;;17.41;31.45
21109;BME280;10712;52.944;9.098;2023-03-16T12:19:02;101618.25;;;17.47;31.96
21109;BME280;10712;52.944;9.098;2023-03-16T12:21:41;101617.47;;;17.58;31.90
21109;BME280;10712;52.944;9.098;2023-03-16T12:24:26;101607.25;;;17.63;30.99
21109;BME280;10712;52.944;9.098;2023-03-16T12:26:54;101616.16;;;17.63;31.26
21109;BME280;10712;52.944;9.098;2023-03-16T12:32:25;101613.00;;;17.82;31.09
21109;BME280;10712;52.944;9.098;2023-03-16T12:35:20;101601.09;;;17.85;30.91
21109;BME280;10712;52.944;9.098;2023-03-16T12:43:32;101575.75;;;17.87;30.75
21109;BME280;10712;52.944;9.098;2023-03-16T12:46:12;101581.44;;;17.95;31.20
21109;BME280;10712;52.944;9.098;2023-03-16T12:48:46;101575.69;;;18.00;31.25
21109;BME280;10712;52.944;9.098;2023-03-16T12:51:12;101580.09;;;18.01;31.13
21109;BME280;10712;52.944;9.098;2023-03-16T12:53:45;101566.97;;;17.96;30.79
21109;BME280;10712;52.944;9.098;2023-03-16T12:58:57;101578.94;;;17.92;30.47
21109;BME280;10712;52.944;9.098;2023-03-16T13:01:43;101571.72;;;17.93;30.25
21109;BME280;10712;52.944;9.098;2023-03-16T13:04:15;101553.78;;;18.04;29.24
21109;BME280;10712;52.944;9.098;2023-03-16T13:06:47;101555.72;;;18.02;28.55
21109;BME280;10712;52.944;9.098;2023-03-16T13:09:27;101553.22;;;17.88;29.45
21109;BME280;10712;52.944;9.098;2023-03-16T13:11:57;101550.06;;;17.94;28.84
21109;BME280;10712;52.944;9.098;2023-03-16T13:14:42;101549.56;;;17.89;29.58
21109;BME280;10712;52.944;9.098;2023-03-16T13:19:42;101553.28;;;17.76;30.30
21109;BME280;10712;52.944;9.098;2023-03-16T13:24:55;101538.00;;;17.87;30.16
21109;BME280;10712;52.944;9.098;2023-03-16T13:27:32;101528.38;;;17.96;30.11
21109;BME280;10712;52.944;9.098;2023-03-16T13:30:01;101532.66;;;17.98;29.64
21109;BME280;10712;52.944;9.098;2023-03-16T13:32:38;101534.63;;;17.96;29.61
21109;BME280;10712;52.944;9.098;2023-03-16T13:35:07;101538.66;;;17.91;29.95
21109;BME280;10712;52.944;9.098;2023-03-16T13:37:39;101542.66;;;17.85;30.34
21109;BME280;10712;52.944;9.098;2023-03-16T13:40:23;101541.69;;;17.86;30.67
21109;BME280;10712;52.944;9.098;2023-03-16T13:42:51;101536.56;;;17.94;30.09
21109;BME280;10712;52.944;9.098;2023-03-16T13:45:31;101533.38;;;17.89;29.21
21109;BME280;10712;52.944;9.098;2023-03-16T13:47:59;101530.41;;;17.81;29.72
21109;BME280;10712;52.944;9.098;2023-03-16T13:50:31;101539.81;;;17.76;30.02
21109;BME280;10712;52.944;9.098;2023-03-16T13:53:01;101526.44;;;17.74;30.63
21109;BME280;10712;52.944;9.098;2023-03-16T13:55:34;101525.22;;;17.78;30.19
21109;BME280;10712;52.944;9.098;2023-03-16T13:58:02;101514.31;;;17.68;30.21
21109;BME280;10712;52.944;9.098;2023-03-16T14:00:36;101522.72;;;17.64;30.41
21109;BME280;10712;52.944;9.098;2023-03-16T14:03:19;101519.31;;;17.62;30.71
21109;BME280;10712;52.944;9.098;2023-03-16T14:05:47;101504.09;;;17.61;30.63
21109;BME280;10712;52.944;9.098;2023-03-16T14:08:20;101498.78;;;17.59;30.39
21109;BME280;10712;52.944;9.098;2023-03-16T14:10:49;101497.50;;;17.65;30.31
21109;BME280;10712;52.944;9.098;2023-03-16T14:18:39;101474.47;;;17.61;30.73
21109;BME280;10712;52.944;9.098;2023-03-16T14:21:25;101466.00;;;17.65;29.86
21109;BME280;10712;52.944;9.098;2023-03-16T14:23:57;101453.84;;;17.60;30.05
21109;BME280;10712;52.944;9.098;2023-03-16T14:26:24;101455.69;;;17.59;30.33
21109;BME280;10712;52.944;9.098;2023-03-16T14:29:13;101444.28;;;17.56;30.69
21109;BME280;10712;52.944;9.098;2023-03-16T14:31:42;101446.72;;;17.59;30.73
21109;BME280;10712;52.944;9.098;2023-03-16T14:34:41;101441.94;;;17.51;30.79
21109;BME280;10712;52.944;9.098;2023-03-16T14:37:13;101442.56;;;17.55;30.86